Time;durP1;ratioP1;P1;durP2;ratioP2;P2;SDS_P1;SDS_P2;PMS_P1;PMS_P2;Temp;Humidity;BMP_temperature;BMP_pressure;BME280_temperature;BME280_humidity;BME280_pressure;Samples;Min_cycle;Max_cycle;Signal;HPM_P1;HPM_P2
2023/03/17 00:01:43;;;;;;;3.75;1.60;;;18.30;36.50;;;;;;4853340;29;20227;-85
2023/03/17 00:04:18;;;;;;;4.10;1.70;;;18.30;36.40;;;;;;4855034;29;20763;-84
2023/03/17 00:06:50;;;;;;;3.40;1.67;;;18.30;36.60;;;;;;4889364;29;20191;-83
2023/03/17 00:09:38;;;;;;;;;;;;;;;;;;;;;
2023/03/17 00:15:58;;;;;;;4.50;1.90;;;18.30;36.50;;;;;;4871575;29;20175;-84
2023/03/17 00:18:36;;;;;;;;;;;;;;;;;;;;;
2023/03/17 00:21:48;;;;;;;3.20;1.75;;;18.30;36.50;;;;;;4856697;29;20256;-85
2023/03/17 00:24:25;;;;;;;3.05;1.60;;;18.30;36.60;;;;;;4871773;29;20232;-84
2023/03/17 00:27:03;;;;;;;3.88;1.85;;;18.30;36.60;;;;;;4822116;29;20245;-84
2023/03/17 00:29:49;;;;;;;3.55;1.85;;;18.30;36.60;;;;;;4834722;29;20182;-84
2023/03/17 00:36:00;;;;;;;4.22;1.75;;;18.30;36.60;;;;;;4834433;29;20202;-84
2023/03/17 00:38:42;;;;;;;2.00;1.65;;;18.30;36.70;;;;;;4853504;29;20210;-84
2023/03/17 00:41:17;;;;;;;3.40;1.40;;;18.30;36.70;;;;;;4828671;29;20581;-84
2023/03/17 00:43:56;;;;;;;3.70;1.35;;;18.30;36.70;;;;;;4850325;29;20227;-84
2023/03/17 00:46:52;;;;;;;2.38;1.90;;;18.20;36.70;;;;;;4838097;29;20193;-85
2023/03/17 00:49:31;;;;;;;3.25;1.90;;;18.20;36.70;;;;;;4831153;29;20205;-84
2023/03/17 00:52:19;;;;;;;2.78;1.60;;;18.30;36.80;;;;;;4815732;29;20206;-84
2023/03/17 00:54:45;;;;;;;4.38;1.60;;;18.20;37.50;;;;;;4799770;29;20225;-85
2023/03/17 00:57:14;;;;;;;3.88;1.63;;;18.20;36.80;;;;;;4796875;30;20196;-84
2023/03/17 00:59:52;;;;;;;3.60;1.65;;;18.20;36.80;;;;;;4797170;30;20228;-85
2023/03/17 01:02:44;;;;;;;2.83;1.67;;;18.20;36.90;;;;;;4805225;29;20257;-84
2023/03/17 01:05:34;;;;;;;2.85;1.73;;;18.20;37.00;;;;;;4798155;29;20194;-84
2023/03/17 01:08:06;;;;;;;2.28;1.60;;;18.20;37.00;;;;;;4771717;29;20193;-84
2023/03/17 01:10:56;;;;;;;3.05;1.50;;;18.20;37.00;;;;;;4779980;29;20196;-84
2023/03/17 01:13:42;;;;;;;2.72;1.60;;;18.20;37.00;;;;;;4795525;30;20226;-85
2023/03/17 01:16:20;;;;;;;4.80;1.95;;;18.10;37.00;;;;;;4789499;29;20201;-83
2023/03/17 01:19:10;;;;;;;3.45;1.60;;;18.20;37.10;;;;;;4812224;29;20219;-84
2023/03/17 01:21:37;;;;;;;2.65;1.55;;;18.20;37.30;;;;;;4815493;29;20187;-84
2023/03/17 01:24:32;;;;;;;4.13;1.70;;;18.10;37.10;;;;;;4828109;29;20561;-85
2023/03/17 01:27:05;;;;;;;1.77;1.58;;;18.20;37.10;;;;;;4762936;29;20189;-85
2023/03/17 01:29:55;;;;;;;3.97;1.73;;;18.10;37.10;;;;;;4781631;30;20196;-84
2023/03/17 01:33:16;;;;;;;3.42;1.80;;;18.20;37.10;;;;;;4795979;30;20192;-84
2023/03/17 01:35:44;;;;;;;3.42;1.70;;;18.20;37.10;;;;;;4769536;30;20195;-84
2023/03/17 01:38:19;;;;;;;3.15;1.50;;;18.10;37.20;;;;;;4788651;30;20632;-84
2023/03/17 01:41:00;;;;;;;2.45;1.67;;;18.10;37.90;;;;;;4795789;30;20218;-84
2023/03/17 01:43:43;;;;;;;3.55;1.65;;;18.10;37.10;;;;;;4813875;29;20191;-84
2023/03/17 01:46:35;;;;;;;5.50;1.67;;;18.10;37.30;;;;;;4813769;29;20197;-84
2023/03/17 01:49:31;;;;;;;3.25;1.77;;;18.10;37.20;;;;;;4811029;29;20306;-84
2023/03/17 01:52:53;;;;;;;5.00;1.73;;;18.10;37.30;;;;;;4776685;30;20200;-84
2023/03/17 01:55:14;;;;;;;9.65;1.83;;;18.10;37.30;;;;;;4777083;30;20683;-84
2023/03/17 01:57:58;;;;;;;3.03;1.65;;;18.10;37.30;;;;;;4817245;29;20215;-84
2023/03/17 02:00:52;;;;;;;4.68;1.90;;;18.10;37.40;;;;;;4835990;29;20186;-84
2023/03/17 02:03:37;;;;;;;3.05;1.60;;;18.10;37.50;;;;;;4854216;29;20196;-84
2023/03/17 02:06:23;;;;;;;2.83;1.48;;;18.10;37.40;;;;;;4846776;29;20224;-84
2023/03/17 02:08:54;;;;;;;2.40;1.63;;;18.10;37.50;;;;;;4814973;29;20258;-84
2023/03/17 02:12:14;;;;;;;2.95;1.60;;;18.00;37.40;;;;;;4847339;29;20197;-84
2023/03/17 02:14:54;;;;;;;4.95;1.60;;;18.10;37.60;;;;;;4847958;29;20190;-84
2023/03/17 02:17:27;;;;;;;4.28;1.55;;;18.10;37.50;;;;;;4854561;29;20607;-84
2023/03/17 02:20:32;;;;;;;3.97;1.85;;;18.10;37.50;;;;;;4820556;29;20225;-84
2023/03/17 02:23:17;;;;;;;4.07;1.58;;;18.10;37.50;;;;;;4812019;29;20186;-84
2023/03/17 02:25:52;;;;;;;2.42;1.45;;;18.00;37.40;;;;;;4813939;29;20574;-85
2023/03/17 02:28:28;;;;;;;1.98;1.52;;;18.00;37.50;;;;;;4846015;29;20196;-84
2023/03/17 02:31:11;;;;;;;2.00;1.75;;;18.00;37.50;;;;;;4861766;29;20221;-84
2023/03/17 02:33:45;;;;;;;5.18;2.00;;;18.10;37.50;;;;;;4829103;29;20287;-84
2023/03/17 02:36:20;;;;;;;2.72;1.42;;;18.00;37.50;;;;;;4817872;29;20558;-85
2023/03/17 02:39:26;;;;;;;2.55;1.60;;;18.10;37.60;;;;;;4817299;29;20220;-84
2023/03/17 02:45:53;;;;;;;3.45;1.77;;;18.00;37.50;;;;;;4818062;29;20181;-85
2023/03/17 02:48:30;;;;;;;2.42;1.70;;;18.00;37.60;;;;;;4808046;29;20195;-84
2023/03/17 02:50:56;;;;;;;3.33;1.80;;;18.00;37.60;;;;;;4802148;29;20194;-85
2023/03/17 02:57:09;;;;;;;3.25;1.48;;;18.00;37.60;;;;;;4800616;29;20225;-84
2023/03/17 03:00:20;;;;;;;2.33;1.50;;;18.00;37.60;;;;;;4816740;29;20258;-84
2023/03/17 03:02:57;;;;;;;2.45;1.60;;;18.00;37.70;;;;;;4850458;29;20192;-84
2023/03/17 03:06:26;;;;;;;5.63;1.63;;;18.00;37.60;;;;;;4914162;29;20179;-84
2023/03/17 03:08:32;;;;;;;3.08;1.30;;;18.00;37.80;;;;;;4908751;29;20277;-85
2023/03/17 03:11:17;;;;;;;2.53;1.30;;;18.00;37.70;;;;;;4900599;29;20255;-84
2023/03/17 03:13:50;;;;;;;3.47;1.63;;;18.00;37.80;;;;;;4853426;29;20189;-84
2023/03/17 03:16:21;;;;;;;2.72;1.50;;;18.00;37.70;;;;;;4798477;29;20251;-84
2023/03/17 03:18:56;;;;;;;2.58;1.80;;;18.00;37.60;;;;;;4799049;29;20277;-85
2023/03/17 03:25:27;;;;;;;3.45;1.63;;;18.00;37.80;;;;;;4832827;29;20680;-84
2023/03/17 03:27:58;;;;;;;2.97;1.45;;;17.90;37.80;;;;;;4864473;29;20702;-84
2023/03/17 03:30:49;;;;;;;3.00;1.70;;;18.00;37.80;;;;;;4854025;29;20243;-84
2023/03/17 03:33:14;;;;;;;2.97;1.50;;;18.00;37.90;;;;;;4858774;29;20276;-84
2023/03/17 03:36:03;;;;;;;3.28;1.90;;;18.00;37.90;;;;;;4832150;29;20204;-84
2023/03/17 03:38:36;;;;;;;2.90;1.58;;;18.00;38.00;;;;;;4852776;29;20220;-85
2023/03/17 03:41:02;;;;;;;1.67;1.30;;;18.00;37.90;;;;;;4835172;29;20188;-84
2023/03/17 03:43:28;;;;;;;3.75;1.65;;;18.00;37.80;;;;;;4875180;29;20215;-84
2023/03/17 03:46:02;;;;;;;2.58;1.52;;;18.00;37.90;;;;;;4950330;29;20177;-85
2023/03/17 03:48:31;;;;;;;2.08;1.40;;;17.90;38.00;;;;;;4935600;29;20200;-84
2023/03/17 03:51:19;;;;;;;1.88;1.58;;;18.00;38.00;;;;;;4931759;29;20182;-84
2023/03/17 03:54:06;;;;;;;2.72;1.52;;;18.00;38.00;;;;;;4914394;29;20189;-84
2023/03/17 03:56:43;;;;;;;2.45;1.80;;;18.00;38.00;;;;;;4931105;29;20276;-84
2023/03/17 03:59:21;;;;;;;3.55;1.60;;;17.90;38.00;;;;;;4910485;29;20288;-84
2023/03/17 04:02:19;;;;;;;3.63;1.75;;;17.90;38.00;;;;;;4928330;29;20245;-85
2023/03/17 04:05:00;;;;;;;2.38;1.58;;;17.90;38.00;;;;;;4908911;29;20183;-84
2023/03/17 04:07:54;;;;;;;3.30;1.50;;;17.90;37.90;;;;;;4927264;29;20570;-85
2023/03/17 04:10:37;;;;;;;2.35;1.40;;;18.00;38.00;;;;;;4878846;29;20199;-85
2023/03/17 04:13:18;;;;;;;;;;;;;;;;;;;;;
2023/03/17 04:19:33;;;;;;;2.50;1.55;;;17.90;38.00;;;;;;4871358;29;20237;-84
2023/03/17 04:22:15;;;;;;;2.00;1.38;;;17.90;38.00;;;;;;4887554;29;20219;-84
2023/03/17 04:24:48;;;;;;;5.07;1.65;;;17.90;38.00;;;;;;4884840;29;20184;-84
2023/03/17 04:27:37;;;;;;;2.10;1.75;;;17.90;38.00;;;;;;4886708;29;20263;-85
2023/03/17 04:31:10;;;;;;;3.40;1.60;;;17.90;38.00;;;;;;4883551;29;20195;-85
2023/03/17 04:33:19;;;;;;;2.67;1.60;;;17.90;38.00;;;;;;4886781;29;20188;-84
2023/03/17 04:35:56;;;;;;;3.35;1.40;;;17.90;38.00;;;;;;4889620;29;20276;-83
2023/03/17 04:38:34;;;;;;;3.72;1.50;;;17.90;38.00;;;;;;4871711;29;20209;-84
2023/03/17 04:41:27;;;;;;;2.85;1.73;;;17.90;38.00;;;;;;4868750;29;20662;-83
2023/03/17 04:47:38;;;;;;;4.43;1.90;;;17.90;38.00;;;;;;4909071;29;20243;-84
2023/03/17 04:50:52;;;;;;;3.30;1.90;;;17.90;38.10;;;;;;4888419;29;20196;-84
2023/03/17 04:53:46;;;;;;;3.13;1.80;;;17.90;38.10;;;;;;4908372;29;20183;-84
2023/03/17 04:56:35;;;;;;;3.13;1.48;;;17.90;38.10;;;;;;4922127;29;20195;-84
2023/03/17 04:59:05;;;;;;;2.58;1.65;;;17.80;38.10;;;;;;4914367;29;20236;-84
2023/03/17 05:02:02;;;;;;;1.77;1.40;;;17.80;38.00;;;;;;4889655;29;20184;-85
2023/03/17 05:04:33;;;;;;;2.88;1.70;;;17.90;38.10;;;;;;4889457;29;20267;-85
2023/03/17 05:07:01;;;;;;;3.33;1.60;;;17.80;38.00;;;;;;4851650;29;20254;-84
2023/03/17 05:09:30;;;;;;;1.75;1.55;;;17.90;38.20;;;;;;4843304;29;20450;-84
2023/03/17 05:11:55;;;;;;;3.05;1.88;;;17.80;38.10;;;;;;4849177;29;20248;-84
2023/03/17 05:14:30;;;;;;;2.72;1.58;;;17.80;38.10;;;;;;4818697;29;20194;-84
2023/03/17 05:16:59;;;;;;;2.35;1.40;;;17.80;38.10;;;;;;4804588;29;20190;-84
2023/03/17 05:19:30;;;;;;;2.08;1.40;;;17.80;38.00;;;;;;4816154;29;20249;-84
2023/03/17 05:22:16;;;;;;;1.90;1.50;;;17.80;38.00;;;;;;4831630;29;20198;-83
2023/03/17 05:25:01;;;;;;;;;;;;;;;;;;;;;
2023/03/17 05:27:39;;;;;;;1.98;1.33;;;17.90;38.10;;;;;;4831670;29;20263;-84
2023/03/17 05:30:22;;;;;;;2.08;1.45;;;17.80;38.10;;;;;;4852409;29;20170;-84
2023/03/17 05:33:36;;;;;;;1.67;1.50;;;17.90;38.10;;;;;;4850430;29;20234;-84
2023/03/17 05:39:03;;;;;;;2.72;1.65;;;17.80;38.10;;;;;;4725116;30;20220;-84
2023/03/17 05:41:32;;;;;;;2.20;1.55;;;17.90;38.20;;;;;;4743792;30;20197;-84
2023/03/17 05:44:29;;;;;;;3.33;1.50;;;17.90;38.10;;;;;;4743794;30;20205;-84
2023/03/17 05:47:24;;;;;;;2.67;1.50;;;17.90;38.10;;;;;;4754783;30;20280;-84
2023/03/17 05:50:23;;;;;;;2.65;1.50;;;17.90;38.00;;;;;;4744551;30;20197;-84
2023/03/17 05:52:55;;;;;;;2.58;1.80;;;17.90;38.10;;;;;;4696585;30;20231;-85
2023/03/17 05:55:33;;;;;;;2.05;1.60;;;17.80;38.10;;;;;;4692331;30;20203;-85
2023/03/17 05:58:03;;;;;;;2.72;1.40;;;17.80;38.10;;;;;;4682060;30;20200;-84
2023/03/17 06:01:12;;;;;;;2.83;1.70;;;17.80;38.10;;;;;;4724174;30;20202;-84
2023/03/17 06:03:54;;;;;;;2.72;1.60;;;17.80;38.20;;;;;;4722047;30;20210;-84
2023/03/17 06:06:23;;;;;;;4.07;1.65;;;17.80;38.20;;;;;;4730651;30;20311;-84
2023/03/17 06:08:51;;;;;;;3.53;1.50;;;17.80;38.10;;;;;;4704977;30;20206;-83
2023/03/17 06:11:18;;;;;;;1.98;1.52;;;17.80;38.10;;;;;;4704039;30;20200;-83
2023/03/17 06:14:06;;;;;;;2.92;1.42;;;17.80;38.20;;;;;;4739322;30;20198;-83
2023/03/17 06:16:43;;;;;;;2.50;1.65;;;17.80;38.30;;;;;;4772913;30;20191;-83
2023/03/17 06:19:31;;;;;;;2.50;1.70;;;17.70;38.30;;;;;;4814055;29;20237;-83
2023/03/17 06:22:01;;;;;;;2.72;1.83;;;17.80;38.30;;;;;;4817605;29;20242;-84
2023/03/17 06:24:39;;;;;;;2.00;1.50;;;17.80;38.20;;;;;;4846987;29;20231;-83
2023/03/17 06:27:13;;;;;;;1.85;1.50;;;17.80;38.20;;;;;;4872490;29;20192;-84
2023/03/17 06:29:41;;;;;;;3.42;1.45;;;17.80;38.20;;;;;;4869106;29;20208;-83
2023/03/17 06:32:19;;;;;;;3.78;1.70;;;17.80;38.20;;;;;;4834085;29;20238;-84
2023/03/17 06:34:48;;;;;;;2.30;1.55;;;17.80;38.20;;;;;;4821487;29;20190;-84
2023/03/17 06:37:21;;;;;;;2.60;1.70;;;17.80;38.10;;;;;;4799650;29;20219;-84
2023/03/17 06:39:57;;;;;;;2.63;1.85;;;17.80;38.10;;;;;;4784008;30;20332;-84
2023/03/17 06:42:31;;;;;;;1.58;1.30;;;17.80;38.30;;;;;;4781827;30;20208;-84
2023/03/17 06:45:19;;;;;;;2.58;1.60;;;17.80;38.30;;;;;;4774224;30;20195;-85
2023/03/17 06:47:52;;;;;;;2.30;1.50;;;17.80;38.30;;;;;;4778057;30;20188;-85
2023/03/17 06:50:46;;;;;;;4.00;1.50;;;17.80;38.40;;;;;;4765286;30;20199;-84
2023/03/17 06:53:17;;;;;;;2.35;1.60;;;17.70;38.40;;;;;;4764264;30;20199;-84
2023/03/17 06:55:51;;;;;;;3.25;1.58;;;17.70;38.60;;;;;;4760408;30;20187;-84
2023/03/17 06:58:32;;;;;;;2.05;1.60;;;17.70;38.60;;;;;;4776915;29;20231;-84
2023/03/17 07:01:04;;;;;;;4.47;1.58;;;17.70;38.60;;;;;;4816568;29;20354;-84
2023/03/17 07:03:30;;;;;;;2.50;1.42;;;17.70;38.60;;;;;;4850153;29;20188;-84
2023/03/17 07:05:55;;;;;;;2.15;1.40;;;17.70;38.60;;;;;;4875228;29;20256;-84
2023/03/17 07:08:21;;;;;;;2.22;1.60;;;17.70;38.50;;;;;;4875904;29;20183;-84
2023/03/17 07:10:47;;;;;;;2.17;1.35;;;17.70;38.50;;;;;;4892931;29;20188;-84
2023/03/17 07:13:19;;;;;;;3.08;1.80;;;17.70;38.50;;;;;;4890630;29;20255;-84
2023/03/17 07:15:47;;;;;;;4.25;1.60;;;17.70;38.40;;;;;;4953658;28;20179;-84
2023/03/17 07:18:15;;;;;;;1.98;1.67;;;17.70;38.50;;;;;;4973618;28;20200;-83
2023/03/17 07:20:41;;;;;;;1.80;1.63;;;17.70;38.40;;;;;;4990504;28;20239;-83
2023/03/17 07:23:16;;;;;;;1.40;1.30;;;17.70;38.50;;;;;;4989062;28;20168;-83
2023/03/17 07:25:44;;;;;;;2.92;1.50;;;17.70;38.40;;;;;;4989478;28;20166;-83
2023/03/17 07:28:10;;;;;;;7.90;2.70;;;17.70;38.30;;;;;;4998104;28;20588;-85
2023/03/17 07:30:37;;;;;;;3.92;2.58;;;17.70;38.50;;;;;;4997279;28;20225;-85
2023/03/17 07:33:16;;;;;;;4.28;2.40;;;17.70;38.60;;;;;;5001567;28;20174;-85
2023/03/17 07:35:44;;;;;;;2.90;2.20;;;17.70;38.50;;;;;;4972295;29;20224;-86
2023/03/17 07:38:16;;;;;;;3.67;2.05;;;17.70;38.50;;;;;;4982104;28;20635;-85
2023/03/17 07:40:42;;;;;;;2.80;2.20;;;17.70;38.50;;;;;;4982087;28;20205;-85
2023/03/17 07:43:08;;;;;;;3.72;2.17;;;17.80;38.50;;;;;;4999595;28;20213;-85
2023/03/17 07:45:34;;;;;;;2.97;2.33;;;17.90;38.30;;;;;;4967305;28;20176;-84
2023/03/17 07:48:03;;;;;;;2.55;2.33;;;17.90;38.20;;;;;;4983829;28;20209;-84
2023/03/17 07:50:32;;;;;;;6.25;2.28;;;17.80;38.00;;;;;;4964588;28;20170;-84
2023/03/17 07:53:00;;;;;;;2.60;2.10;;;17.80;38.10;;;;;;4966982;28;20173;-84
2023/03/17 07:55:30;;;;;;;4.43;2.15;;;17.80;37.90;;;;;;4967000;28;20170;-84
2023/03/17 07:57:56;;;;;;;2.80;2.17;;;17.70;37.80;;;;;;4970053;28;20264;-84
2023/03/17 08:00:26;;;;;;;4.78;2.50;;;17.70;37.80;;;;;;4975658;28;20231;-84
2023/03/17 08:02:52;;;;;;;5.57;2.70;;;17.60;37.80;;;;;;4975958;28;20168;-84
2023/03/17 08:05:20;;;;;;;5.97;2.38;;;17.70;38.10;;;;;;5004991;28;20178;-84
2023/03/17 08:07:49;;;;;;;4.72;2.17;;;17.50;38.00;;;;;;5010903;28;20190;-84
2023/03/17 08:10:15;;;;;;;6.15;2.47;;;17.50;37.90;;;;;;4979405;28;20167;-84
2023/03/17 08:12:41;;;;;;;4.43;2.00;;;17.40;37.90;;;;;;4978487;28;20232;-84
2023/03/17 08:15:09;;;;;;;2.90;2.10;;;17.40;37.90;;;;;;5010399;28;20190;-84
2023/03/17 08:17:36;;;;;;;4.85;2.60;;;17.40;37.90;;;;;;4977807;28;20649;-84
2023/03/17 08:20:03;;;;;;;4.47;2.17;;;17.40;37.90;;;;;;4992031;28;20214;-84
2023/03/17 08:22:29;;;;;;;3.30;1.52;;;17.30;37.70;;;;;;4978679;28;20227;-84
2023/03/17 08:24:57;;;;;;;2.97;1.80;;;17.40;37.80;;;;;;4978200;28;20199;-84
2023/03/17 08:27:25;;;;;;;2.08;1.80;;;17.30;37.60;;;;;;4978361;28;20159;-84
2023/03/17 08:29:54;;;;;;;3.00;1.98;;;17.30;37.80;;;;;;4995430;28;20569;-84
2023/03/17 08:32:23;;;;;;;4.47;1.70;;;17.30;37.70;;;;;;5030493;28;20151;-84
2023/03/17 08:34:52;;;;;;;2.78;1.92;;;17.20;37.80;;;;;;4980753;28;20300;-84
2023/03/17 08:37:21;;;;;;;2.33;1.70;;;17.20;38.00;;;;;;5013224;28;20192;-84
2023/03/17 08:39:57;;;;;;;2.80;1.80;;;17.20;37.80;;;;;;4994375;28;20187;-84
2023/03/17 08:42:23;;;;;;;2.85;1.50;;;17.20;38.00;;;;;;5001894;28;20166;-84
2023/03/17 08:44:54;;;;;;;2.47;1.73;;;17.00;37.80;;;;;;5000018;28;20500;-84
2023/03/17 08:47:24;;;;;;;3.47;1.65;;;17.10;37.80;;;;;;4974177;28;20192;-84
2023/03/17 08:49:50;;;;;;;2.50;1.70;;;17.00;37.90;;;;;;4952702;29;20193;-83
2023/03/17 08:52:20;;;;;;;2.03;1.55;;;17.10;37.80;;;;;;4932003;29;20190;-83
2023/03/17 08:55:01;;;;;;;1.77;1.35;;;17.30;37.60;;;;;;4919077;29;20187;-83
2023/03/17 08:57:27;;;;;;;6.15;1.55;;;17.30;37.50;;;;;;4934649;29;20186;-84
2023/03/17 08:59:58;;;;;;;5.53;1.65;;;17.20;37.50;;;;;;4885029;29;20231;-85
2023/03/17 09:02:31;;;;;;;3.00;1.70;;;17.20;37.60;;;;;;4864617;29;20266;-84
2023/03/17 09:05:02;;;;;;;1.98;1.60;;;17.10;37.70;;;;;;4859273;29;20203;-83
2023/03/17 09:07:31;;;;;;;2.28;1.38;;;17.20;37.80;;;;;;4875928;29;20185;-85
2023/03/17 09:10:03;;;;;;;1.83;1.45;;;17.30;37.80;;;;;;4876481;29;20197;-84
2023/03/17 09:12:29;;;;;;;2.65;1.80;;;17.50;37.60;;;;;;4842911;29;20195;-84
2023/03/17 09:15:17;;;;;;;4.68;1.73;;;17.60;37.40;;;;;;4854728;29;20226;-85
2023/03/17 09:17:43;;;;;;;1.65;1.40;;;17.60;37.30;;;;;;4845564;29;20193;-84
2023/03/17 09:21:20;;;;;;;3.67;1.70;;;17.70;37.30;;;;;;4891254;29;20314;-84
2023/03/17 09:23:51;;;;;;;2.90;1.80;;;17.70;37.30;;;;;;4847336;29;20242;-83
2023/03/17 09:26:19;;;;;;;3.05;1.70;;;17.70;37.30;;;;;;4843117;29;20277;-83
2023/03/17 09:28:49;;;;;;;2.92;1.50;;;17.80;37.30;;;;;;4813810;29;20736;-83
2023/03/17 09:31:24;;;;;;;1.83;1.67;;;17.90;37.20;;;;;;4819829;29;20191;-82
2023/03/17 09:33:51;;;;;;;2.65;1.63;;;17.90;37.30;;;;;;4835759;29;20221;-83
2023/03/17 09:36:19;;;;;;;2.28;1.40;;;17.90;37.10;;;;;;4799359;29;20212;-83
2023/03/17 09:38:46;;;;;;;2.63;1.40;;;17.90;37.20;;;;;;4797928;30;20301;-83
2023/03/17 09:41:46;;;;;;;2.05;1.65;;;18.00;37.10;;;;;;4785030;30;20187;-84
2023/03/17 09:44:31;;;;;;;2.10;1.70;;;18.00;37.10;;;;;;4800313;29;20198;-84
2023/03/17 09:47:01;;;;;;;1.67;1.40;;;17.90;37.20;;;;;;4800232;29;20206;-84
2023/03/17 09:49:47;;;;;;;2.92;1.70;;;18.00;37.10;;;;;;4799295;29;20191;-84
2023/03/17 09:52:20;;;;;;;2.00;1.40;;;18.00;37.10;;;;;;4785869;29;20697;-83
2023/03/17 09:54:52;;;;;;;3.65;1.55;;;18.00;37.00;;;;;;4781977;29;20199;-82
2023/03/17 09:57:28;;;;;;;7.30;1.77;;;18.10;37.10;;;;;;4824253;29;20305;-84
2023/03/17 10:00:10;;;;;;;8.90;1.77;;;18.10;37.10;;;;;;4851085;29;20229;-86
2023/03/17 10:02:38;;;;;;;3.83;1.52;;;18.10;37.00;;;;;;4855854;29;20254;-84
2023/03/17 10:05:20;;;;;;;6.05;1.60;;;18.20;36.90;;;;;;4887054;29;20220;-84
2023/03/17 10:08:19;;;;;;;5.25;1.70;;;18.20;36.90;;;;;;4877079;29;20219;-84
2023/03/17 10:10:48;;;;;;;5.43;1.70;;;18.20;36.80;;;;;;4857582;29;20193;-84
2023/03/17 10:13:57;;;;;;;6.05;1.80;;;18.20;36.90;;;;;;4869293;29;20296;-84
2023/03/17 10:16:33;;;;;;;11.40;2.20;;;18.20;37.00;;;;;;4860644;29;20192;-85
2023/03/17 10:19:09;;;;;;;7.20;2.10;;;18.30;36.90;;;;;;4842391;29;20300;-85
2023/03/17 10:21:43;;;;;;;9.15;2.30;;;18.30;36.90;;;;;;4856340;29;20189;-84
2023/03/17 10:24:22;;;;;;;12.85;2.17;;;18.30;37.00;;;;;;4839954;29;20188;-84
2023/03/17 10:26:52;;;;;;;11.52;2.20;;;18.30;37.10;;;;;;4853517;29;20472;-84
2023/03/17 10:29:45;;;;;;;14.10;2.63;;;18.20;37.10;;;;;;4868947;29;20193;-85
2023/03/17 10:32:17;;;;;;;10.43;2.20;;;18.20;37.40;;;;;;4871023;29;20188;-83
2023/03/17 10:34:43;;;;;;;10.63;2.10;;;18.30;37.30;;;;;;4869309;29;20261;-84
2023/03/17 10:37:14;;;;;;;13.15;2.03;;;18.40;37.10;;;;;;4870333;29;20582;-83
2023/03/17 10:39:58;;;;;;;12.65;2.17;;;18.30;37.10;;;;;;4884359;29;20727;-83
2023/03/17 10:42:25;;;;;;;7.95;1.92;;;18.30;37.10;;;;;;4835699;29;20209;-84
2023/03/17 10:45:02;;;;;;;8.65;1.70;;;18.40;37.10;;;;;;4831780;29;20201;-84
2023/03/17 10:47:31;;;;;;;12.52;1.88;;;18.40;37.00;;;;;;4836303;29;20189;-84
2023/03/17 10:50:02;;;;;;;9.73;1.60;;;18.40;37.10;;;;;;4852960;29;20197;-84
2023/03/17 10:52:32;;;;;;;6.38;1.60;;;18.50;37.10;;;;;;4851652;29;20390;-83
2023/03/17 10:55:04;;;;;;;6.90;1.50;;;18.40;37.10;;;;;;4867499;29;20195;-84
2023/03/17 10:57:53;;;;;;;6.03;1.77;;;18.40;37.10;;;;;;4850775;29;20213;-85
2023/03/17 11:00:27;;;;;;;6.32;1.48;;;18.30;37.20;;;;;;4815159;29;20658;-84
2023/03/17 11:02:58;;;;;;;3.53;1.60;;;18.30;37.20;;;;;;4831345;29;20216;-85
2023/03/17 11:05:33;;;;;;;6.70;1.85;;;18.40;37.10;;;;;;4847861;29;20253;-83
2023/03/17 11:08:11;;;;;;;7.63;1.30;;;18.40;37.60;;;;;;4847289;29;20230;-84
2023/03/17 11:10:52;;;;;;;2.92;1.52;;;18.40;37.30;;;;;;4850251;29;20725;-84
2023/03/17 11:13:20;;;;;;;6.53;1.70;;;18.40;37.30;;;;;;4862028;29;20212;-84
2023/03/17 11:15:50;;;;;;;3.92;1.40;;;18.40;37.40;;;;;;4877471;29;20687;-84
2023/03/17 11:18:20;;;;;;;10.15;1.60;;;18.40;37.30;;;;;;4920520;29;20280;-84
2023/03/17 11:20:56;;;;;;;4.13;1.33;;;18.30;37.30;;;;;;4919861;29;20180;-83
2023/03/17 11:23:45;;;;;;;3.42;1.58;;;18.30;38.00;;;;;;4920563;29;20162;-84
2023/03/17 11:26:36;;;;;;;2.92;1.35;;;18.40;37.50;;;;;;4906228;29;20218;-83
2023/03/17 11:29:10;;;;;;;5.75;1.40;;;18.30;37.40;;;;;;4903824;29;20194;-84
2023/03/17 11:31:47;;;;;;;3.28;1.55;;;18.40;37.40;;;;;;4930012;29;20196;-83
2023/03/17 11:34:18;;;;;;;4.28;1.25;;;18.40;37.30;;;;;;4935760;28;20180;-84
2023/03/17 11:37:05;;;;;;;4.95;1.75;;;18.40;37.30;;;;;;4949979;28;20200;-86
2023/03/17 11:39:49;;;;;;;3.58;0.95;;;18.40;37.40;;;;;;4963846;28;20311;-83
2023/03/17 11:42:39;;;;;;;2.42;0.98;;;18.40;37.30;;;;;;4964342;28;20212;-84
2023/03/17 11:45:25;;;;;;;4.40;1.40;;;18.40;37.30;;;;;;4982750;28;20244;-83
2023/03/17 11:48:21;;;;;;;2.13;0.90;;;18.40;37.30;;;;;;4981441;28;20255;-83
2023/03/17 11:50:54;;;;;;;7.05;1.15;;;18.40;37.40;;;;;;4978057;28;20292;-84
2023/03/17 11:53:45;;;;;;;3.88;1.20;;;18.40;37.50;;;;;;4904800;29;20186;-83
2023/03/17 11:56:18;;;;;;;3.30;0.95;;;18.40;37.50;;;;;;4908487;29;20171;-84
2023/03/17 11:58:47;;;;;;;4.85;1.10;;;18.30;37.50;;;;;;4887897;29;20234;-84
2023/03/17 12:01:16;;;;;;;5.35;1.23;;;18.40;37.30;;;;;;4886985;29;20174;-83
2023/03/17 12:03:53;;;;;;;2.85;1.00;;;18.50;37.30;;;;;;4919742;29;20178;-83
2023/03/17 12:06:28;;;;;;;5.97;1.20;;;18.50;37.50;;;;;;4905101;29;20174;-84
2023/03/17 12:09:02;;;;;;;3.40;1.20;;;18.50;37.40;;;;;;4908167;29;20186;-83
2023/03/17 12:11:31;;;;;;;2.58;1.08;;;18.40;37.50;;;;;;4904609;29;20281;-83
2023/03/17 12:14:02;;;;;;;3.65;1.10;;;18.40;37.40;;;;;;4933891;29;20249;-85
2023/03/17 12:16:39;;;;;;;0.95;0.75;;;18.50;37.30;;;;;;4915377;29;20579;-84
2023/03/17 12:19:13;;;;;;;4.53;1.08;;;18.40;37.20;;;;;;4918166;29;20726;-85
2023/03/17 12:21:46;;;;;;;4.13;1.13;;;18.50;37.40;;;;;;4917073;29;20531;-83
2023/03/17 12:24:26;;;;;;;3.58;1.20;;;18.40;37.30;;;;;;4918657;29;20178;-84
2023/03/17 12:26:58;;;;;;;7.07;1.00;;;18.30;37.60;;;;;;4919831;29;20182;-83
2023/03/17 12:29:39;;;;;;;2.50;0.90;;;18.40;37.80;;;;;;4919161;29;20193;-82
2023/03/17 12:32:11;;;;;;;2.45;0.77;;;18.30;37.80;;;;;;4938788;29;20743;-82
2023/03/17 12:34:43;;;;;;;2.65;0.90;;;18.40;37.90;;;;;;4908161;29;20192;-83
2023/03/17 12:37:09;;;;;;;2.50;1.00;;;18.40;37.80;;;;;;4923686;29;20190;-83
2023/03/17 12:39:35;;;;;;;1.83;1.10;;;18.30;37.80;;;;;;4941005;29;20200;-82
2023/03/17 12:42:24;;;;;;;3.25;0.73;;;18.20;37.80;;;;;;4930758;28;20245;-83
2023/03/17 12:45:25;;;;;;;2.45;0.88;;;18.30;37.80;;;;;;4964625;28;20184;-83
2023/03/17 12:48:10;;;;;;;3.60;0.88;;;18.30;37.80;;;;;;4978083;28;20216;-83
2023/03/17 12:51:15;;;;;;;5.20;0.85;;;18.40;37.80;;;;;;4962695;28;20160;-82
2023/03/17 12:53:43;;;;;;;2.08;0.80;;;18.40;37.80;;;;;;4967763;28;20184;-81
2023/03/17 12:56:24;;;;;;;1.92;0.95;;;18.40;37.60;;;;;;4946898;28;20172;-83
2023/03/17 12:58:51;;;;;;;1.17;0.68;;;18.50;37.70;;;;;;4966648;28;20225;-83
2023/03/17 13:01:31;;;;;;;0.77;0.63;;;18.50;37.60;;;;;;4986631;28;20182;-82
2023/03/17 13:04:19;;;;;;;2.55;0.80;;;18.60;37.30;;;;;;4989017;28;20164;-82
2023/03/17 13:07:09;;;;;;;1.05;0.60;;;18.50;37.30;;;;;;4988605;28;20156;-81
2023/03/17 13:09:43;;;;;;;1.80;0.60;;;18.50;37.30;;;;;;4983165;28;20175;-82
2023/03/17 13:12:48;;;;;;;5.53;0.90;;;18.50;37.10;;;;;;4985746;28;20171;-82
2023/03/17 13:15:27;;;;;;;0.90;0.70;;;18.50;37.40;;;;;;4988624;28;20195;-84
2023/03/17 13:18:22;;;;;;;2.38;0.80;;;18.50;37.40;;;;;;4970015;28;20542;-83
2023/03/17 13:21:09;;;;;;;11.35;1.73;;;18.50;37.50;;;;;;4974917;28;20188;-83
2023/03/17 13:23:47;;;;;;;37.58;2.67;;;18.50;37.60;;;;;;4989403;28;20191;-84
2023/03/17 13:26:18;;;;;;;37.40;2.33;;;18.50;37.60;;;;;;4985525;28;20152;-82
2023/03/17 13:28:47;;;;;;;38.10;2.75;;;18.40;38.00;;;;;;4974152;28;20176;-83
2023/03/17 13:31:29;;;;;;;25.77;2.70;;;18.50;38.00;;;;;;5025562;28;20151;-84
2023/03/17 13:34:10;;;;;;;26.30;2.38;;;18.50;38.10;;;;;;5010314;28;20252;-83
2023/03/17 13:36:44;;;;;;;11.00;1.20;;;18.50;38.30;;;;;;5026871;28;20155;-83
2023/03/17 13:39:44;;;;;;;12.27;1.35;;;18.40;37.90;;;;;;4987629;28;20232;-83
2023/03/17 13:42:27;;;;;;;19.48;1.40;;;18.50;37.80;;;;;;5021423;28;20151;-83
2023/03/17 13:45:26;;;;;;;14.05;1.23;;;18.50;38.00;;;;;;4975030;28;20167;-83
2023/03/17 13:47:52;;;;;;;10.35;1.63;;;18.50;37.90;;;;;;4973194;28;20159;-83
2023/03/17 13:50:28;;;;;;;7.82;1.17;;;18.50;38.10;;;;;;5005049;28;20197;-84
2023/03/17 13:52:56;;;;;;;9.98;1.20;;;18.50;38.10;;;;;;4990681;28;20174;-84
2023/03/17 13:55:22;;;;;;;9.90;1.02;;;18.50;38.20;;;;;;5022341;28;20257;-82
2023/03/17 13:58:22;;;;;;;8.90;0.90;;;18.50;38.10;;;;;;5042373;28;20223;-83
2023/03/17 14:00:55;;;;;;;12.02;1.90;;;18.60;38.20;;;;;;5042594;28;20169;-83
2023/03/17 14:03:34;;;;;;;9.55;1.45;;;18.60;38.20;;;;;;5028457;28;20160;-83
2023/03/17 14:06:02;;;;;;;5.10;1.30;;;18.50;38.20;;;;;;5009371;28;20162;-83
2023/03/17 14:08:30;;;;;;;6.95;1.23;;;18.60;38.00;;;;;;4993343;28;20147;-83
2023/03/17 14:10:59;;;;;;;9.80;1.02;;;18.70;38.10;;;;;;5009673;28;20231;-84
2023/03/17 14:13:28;;;;;;;5.32;0.88;;;18.60;38.30;;;;;;5012427;28;20171;-85
2023/03/17 14:16:04;;;;;;;9.70;1.50;;;18.50;38.40;;;;;;4972465;28;20164;-85